createdAt,value
2023-04-25T00:02:03.895Z,64.45
2023-04-25T00:04:32.328Z,64.52
2023-04-25T00:07:03.799Z,64.41
2023-04-25T00:09:31.984Z,64.86
2023-04-25T00:11:59.927Z,64.64
2023-04-25T00:14:28.111Z,64.67
2023-04-25T00:16:56.490Z,64.79
2023-04-25T00:19:24.435Z,65.29
2023-04-25T00:21:52.431Z,65.40
2023-04-25T00:24:20.354Z,65.55
2023-04-25T00:26:48.299Z,65.79
2023-04-25T00:29:16.230Z,66.05
2023-04-25T00:31:44.228Z,66.14
2023-04-25T00:34:12.062Z,66.53
2023-04-25T00:36:40.451Z,66.88
2023-04-25T00:39:08.759Z,66.68
2023-04-25T00:41:37.883Z,66.68
2023-04-25T00:44:07.431Z,68.54
2023-04-25T00:46:35.297Z,67.48
2023-04-25T00:49:03.433Z,67.68
2023-04-25T00:51:32.473Z,67.57
2023-04-25T00:54:00.632Z,67.65
2023-04-25T00:56:28.620Z,67.61
2023-04-25T00:58:59.212Z,68.05
2023-04-25T01:01:27.431Z,67.57
2023-04-25T01:03:56.440Z,67.37
2023-04-25T01:06:24.825Z,67.24
2023-04-25T01:08:54.050Z,67.08
2023-04-25T01:11:22.268Z,66.82
2023-04-25T01:13:50.380Z,66.69
2023-04-25T01:16:18.560Z,66.51
2023-04-25T01:18:47.750Z,66.46
2023-04-25T01:21:15.923Z,66.61
2023-04-25T01:23:44.789Z,66.65
2023-04-25T01:26:13.833Z,66.72
2023-04-25T01:28:45.489Z,66.90
2023-04-25T01:31:14.579Z,66.85
2023-04-25T01:33:42.773Z,66.97
2023-04-25T01:36:11.497Z,67.70
2023-04-25T01:38:39.437Z,67.68
2023-04-25T01:41:07.731Z,68.00
2023-04-25T01:43:36.018Z,68.12
2023-04-25T01:46:04.225Z,69.92
2023-04-25T01:48:32.208Z,73.22
2023-04-25T01:51:00.638Z,72.76
2023-04-25T01:53:28.802Z,74.31
2023-04-25T01:55:56.859Z,74.49
2023-04-25T01:58:24.964Z,75.30
2023-04-25T02:00:52.857Z,75.09
2023-04-25T02:03:20.796Z,75.31
2023-04-25T02:05:48.804Z,75.59
2023-04-25T02:08:16.788Z,75.92
2023-04-25T02:10:44.844Z,76.31
2023-04-25T02:13:12.838Z,77.33
2023-04-25T02:15:40.786Z,78.01
2023-04-25T02:18:08.785Z,78.46
2023-04-25T02:20:36.642Z,78.68
2023-04-25T02:23:05.176Z,79.05
2023-04-25T02:25:33.138Z,79.53
2023-04-25T02:28:01.143Z,79.40
2023-04-25T02:30:29.163Z,79.62
2023-04-25T02:32:57.091Z,79.66
2023-04-25T02:35:25.029Z,79.85
2023-04-25T02:37:52.897Z,80.01
2023-04-25T02:40:20.835Z,80.50
2023-04-25T02:42:48.984Z,80.24
2023-04-25T02:45:17.162Z,80.14
2023-04-25T02:47:45.074Z,80.52
2023-04-25T02:50:13.702Z,80.45
2023-04-25T02:52:41.654Z,80.58
2023-04-25T02:55:09.929Z,80.60
2023-04-25T02:57:37.827Z,80.33
2023-04-25T03:00:07.459Z,80.42
2023-04-25T03:02:35.452Z,80.25
2023-04-25T03:05:03.391Z,79.76
2023-04-25T03:07:31.295Z,79.69
2023-04-25T03:09:59.290Z,80.00
2023-04-25T03:12:27.213Z,80.14
2023-04-25T03:14:55.115Z,80.00
2023-04-25T03:17:23.167Z,79.58
2023-04-25T03:19:51.047Z,79.53
2023-04-25T03:22:18.897Z,79.37
2023-04-25T03:24:46.890Z,79.20
2023-04-25T03:27:14.963Z,79.03
2023-04-25T03:29:42.938Z,79.40
2023-04-25T03:32:10.919Z,79.00
2023-04-25T03:34:38.932Z,79.29
2023-04-25T03:37:06.939Z,79.63
2023-04-25T03:39:34.887Z,79.34
2023-04-25T03:42:03.302Z,79.27
2023-04-25T03:44:31.144Z,79.03
2023-04-25T03:46:59.399Z,78.67
2023-04-25T03:49:27.613Z,78.62
2023-04-25T03:51:55.505Z,78.41
2023-04-25T03:54:23.386Z,78.24
2023-04-25T03:56:51.299Z,78.14
2023-04-25T03:59:19.151Z,77.98
2023-04-25T04:01:47.014Z,77.76
2023-04-25T04:04:15.311Z,77.68
2023-04-25T04:06:44.520Z,77.45
2023-04-25T04:09:13.654Z,77.52
2023-04-25T04:11:41.721Z,77.42
2023-04-25T04:14:10.392Z,77.44
2023-04-25T04:16:38.548Z,77.66
2023-04-25T04:19:06.574Z,77.65
2023-04-25T04:21:35.806Z,77.72
2023-04-25T04:24:04.120Z,77.67
2023-04-25T04:26:34.207Z,77.74
2023-04-25T04:29:02.494Z,77.53
2023-04-25T04:31:30.509Z,77.44
2023-04-25T04:33:58.575Z,77.38
2023-04-25T04:36:26.895Z,77.85
2023-04-25T04:38:55.030Z,77.71
2023-04-25T04:41:22.976Z,77.75
2023-04-25T04:43:51.466Z,77.59
2023-04-25T04:46:20.768Z,77.64
2023-04-25T04:48:48.644Z,77.46
2023-04-25T04:51:16.574Z,77.59
2023-04-25T04:53:44.436Z,77.40
2023-04-25T04:56:12.342Z,77.14
2023-04-25T04:58:40.394Z,77.22
2023-04-25T05:01:08.451Z,76.97
2023-04-25T05:03:36.631Z,76.93
2023-04-25T05:06:04.773Z,76.85
2023-04-25T05:08:32.642Z,76.63
2023-04-25T05:11:00.501Z,76.59
2023-04-25T05:13:28.447Z,76.60
2023-04-25T05:15:56.263Z,76.39
2023-04-25T05:18:24.383Z,76.20
2023-04-25T05:20:52.317Z,75.95
2023-04-25T05:23:20.175Z,75.87
2023-04-25T05:25:48.045Z,75.76
2023-04-25T05:28:15.907Z,75.76
2023-04-25T05:30:43.742Z,75.63
2023-04-25T05:33:11.654Z,75.33
2023-04-25T05:35:39.626Z,75.12
2023-04-25T05:38:07.538Z,75.12
2023-04-25T05:40:35.527Z,75.00
2023-04-25T05:43:03.725Z,74.84
2023-04-25T05:45:31.798Z,74.70
2023-04-25T05:47:59.703Z,74.47
2023-04-25T05:50:27.716Z,74.41
2023-04-25T05:52:55.610Z,74.31
2023-04-25T05:55:23.516Z,74.53
2023-04-25T05:57:51.819Z,74.46
2023-04-25T06:00:21.189Z,74.45
2023-04-25T06:02:49.456Z,74.34
2023-04-25T06:05:17.639Z,74.26
2023-04-25T06:07:46.128Z,74.18
2023-04-25T06:10:14.046Z,74.21
2023-04-25T06:12:42.077Z,74.02
2023-04-25T06:15:24.561Z,73.56
2023-04-25T06:17:55.875Z,73.40
2023-04-25T06:20:26.213Z,73.16
2023-04-25T06:22:54.846Z,72.74
2023-04-25T06:25:23.437Z,72.53
2023-04-25T06:27:51.358Z,71.88
2023-04-25T06:30:24.573Z,71.39
2023-04-25T06:32:52.588Z,70.47
2023-04-25T06:35:20.561Z,69.47
2023-04-25T06:37:48.512Z,69.58
2023-04-25T06:40:17.327Z,69.63
2023-04-25T06:42:45.336Z,69.55
2023-04-25T06:45:13.276Z,69.12
2023-04-25T06:47:41.157Z,69.06
2023-04-25T06:50:09.598Z,68.81
2023-04-25T06:52:37.670Z,68.51
2023-04-25T06:55:07.224Z,68.32
2023-04-25T06:57:35.154Z,68.07
2023-04-25T07:00:03.105Z,67.81
2023-04-25T07:02:31.141Z,67.72
2023-04-25T07:05:02.127Z,67.85
2023-04-25T07:07:30.123Z,67.77
2023-04-25T07:09:58.300Z,67.87
2023-04-25T07:12:26.168Z,68.08
2023-04-25T07:14:54.135Z,68.28
2023-04-25T07:17:22.029Z,68.52
2023-04-25T07:19:49.928Z,68.70
2023-04-25T07:22:17.932Z,69.36
2023-04-25T07:24:49.886Z,69.62
2023-04-25T07:27:17.952Z,70.26
2023-04-25T07:29:45.939Z,70.56
2023-04-25T07:32:15.830Z,71.67
2023-04-25T07:34:43.932Z,75.91
2023-04-25T07:37:11.999Z,74.83
2023-04-25T07:39:39.940Z,75.39
2023-04-25T07:42:10.344Z,79.16
2023-04-25T07:44:40.895Z,78.79
2023-04-25T07:47:12.604Z,81.43
2023-04-25T07:49:40.678Z,80.47
2023-04-25T07:52:08.906Z,80.43
2023-04-25T07:54:36.895Z,81.15
2023-04-25T07:57:04.947Z,81.38
2023-04-25T07:59:32.810Z,82.71
2023-04-25T08:02:01.185Z,82.50
2023-04-25T08:04:29.403Z,82.83
2023-04-25T08:06:57.288Z,83.52
2023-04-25T08:09:25.230Z,83.56
2023-04-25T08:11:53.180Z,84.72
2023-04-25T08:14:21.084Z,85.39
2023-04-25T08:16:49.043Z,86.22
2023-04-25T08:19:17.028Z,85.91
2023-04-25T08:21:44.978Z,87.12
2023-04-25T08:24:13.354Z,87.58
2023-04-25T08:26:42.075Z,89.43
2023-04-25T08:29:09.932Z,89.34
2023-04-25T08:31:37.864Z,89.15
2023-04-25T08:34:05.771Z,90.41
2023-04-25T08:36:39.164Z,89.78
2023-04-25T08:39:08.324Z,89.96
2023-04-25T08:41:38.660Z,90.11
2023-04-25T08:44:09.534Z,90.08
2023-04-25T08:46:40.182Z,90.01
2023-04-25T08:49:08.240Z,90.14
2023-04-25T08:51:38.487Z,90.08
2023-04-25T08:56:47.002Z,90.60
2023-04-25T08:59:15.401Z,91.24
2023-04-25T09:01:43.515Z,90.52
2023-04-25T09:04:11.678Z,90.17
2023-04-25T09:06:39.799Z,90.61
2023-04-25T09:09:09.773Z,90.20
2023-04-25T09:11:38.911Z,89.90
2023-04-25T09:14:22.995Z,89.75
2023-04-25T09:17:00.062Z,90.24
2023-04-25T09:19:40.430Z,91.10
2023-04-25T09:22:10.305Z,90.33
2023-04-25T09:24:45.785Z,90.37
2023-04-25T09:27:20.027Z,90.20
2023-04-25T09:29:48.691Z,89.76
2023-04-25T09:32:25.728Z,89.32
2023-04-25T09:34:55.614Z,89.21
2023-04-25T09:37:25.635Z,88.03
2023-04-25T09:40:02.788Z,87.68
2023-04-25T09:42:33.702Z,86.41
2023-04-25T09:45:04.552Z,86.29
2023-04-25T09:47:32.524Z,86.38
2023-04-25T09:50:00.824Z,85.27
2023-04-25T09:52:28.872Z,85.44
2023-04-25T09:54:56.993Z,84.05
2023-04-25T09:57:26.365Z,84.47
2023-04-25T09:59:56.555Z,84.19
2023-04-25T10:02:27.604Z,84.04
2023-04-25T10:04:57.873Z,83.38
2023-04-25T10:07:33.124Z,82.94
2023-04-25T10:10:05.172Z,80.88
2023-04-25T10:12:35.314Z,81.30
2023-04-25T10:15:05.064Z,79.76
2023-04-25T10:17:34.904Z,77.02
2023-04-25T10:20:07.317Z,77.49
2023-04-25T10:22:38.318Z,78.35
2023-04-25T10:25:08.354Z,77.33
2023-04-25T10:27:36.845Z,77.52
2023-04-25T10:30:06.647Z,76.52
2023-04-25T10:32:35.531Z,76.39
2023-04-25T10:35:15.086Z,76.39
2023-04-25T10:38:01.628Z,76.62
2023-04-25T10:40:29.759Z,74.70
2023-04-25T10:42:58.365Z,74.98
2023-04-25T10:45:26.341Z,74.79
2023-04-25T10:47:54.267Z,73.56
2023-04-25T10:50:22.318Z,72.28
2023-04-25T10:52:50.283Z,73.23
2023-04-25T10:55:18.246Z,73.38
2023-04-25T10:57:52.185Z,72.90
2023-04-25T11:00:25.762Z,71.35
2023-04-25T11:02:55.854Z,71.61
2023-04-25T11:05:27.248Z,70.82
2023-04-25T11:08:07.123Z,71.80
2023-04-25T11:10:39.314Z,72.02
2023-04-25T11:13:07.418Z,72.87
2023-04-25T11:15:35.412Z,73.22
2023-04-25T11:18:04.228Z,72.84
2023-04-25T11:20:32.290Z,72.81
2023-04-25T11:25:33.259Z,70.87
2023-04-25T11:28:03.759Z,69.39
2023-04-25T11:30:32.892Z,69.22
2023-04-25T11:33:01.193Z,68.68
2023-04-25T11:35:29.196Z,69.27
2023-04-25T11:37:57.217Z,69.43
2023-04-25T11:40:25.150Z,68.44
2023-04-25T11:42:53.821Z,67.07
2023-04-25T11:45:25.332Z,67.54
2023-04-25T11:47:53.928Z,67.65
2023-04-25T11:50:21.905Z,68.46
2023-04-25T11:52:50.664Z,67.78
2023-04-25T11:55:20.863Z,67.30
2023-04-25T11:57:55.061Z,66.73
2023-04-25T12:00:24.037Z,67.07
2023-04-25T12:02:56.622Z,66.49
2023-04-25T12:05:33.860Z,65.20
2023-04-25T12:08:18.684Z,64.69
2023-04-25T12:10:49.263Z,64.42
2023-04-25T12:13:25.213Z,62.84
2023-04-25T12:15:54.091Z,63.10
2023-04-25T12:18:23.747Z,63.99
2023-04-25T12:20:52.099Z,64.69
2023-04-25T12:23:29.222Z,64.95
2023-04-25T12:25:58.205Z,65.66
2023-04-25T12:28:29.618Z,66.41
2023-04-25T12:31:00.766Z,68.00
2023-04-25T12:33:31.048Z,70.03
2023-04-25T12:36:00.180Z,71.52
2023-04-25T12:38:33.286Z,72.40
2023-04-25T12:41:01.249Z,73.45
2023-04-25T12:43:29.258Z,73.61
2023-04-25T12:45:58.237Z,74.44
2023-04-25T12:48:26.487Z,74.16
2023-04-25T12:50:54.773Z,73.72
2023-04-25T12:53:24.498Z,73.23
2023-04-25T12:55:53.129Z,71.98
2023-04-25T12:58:22.299Z,71.71
2023-04-25T13:00:50.833Z,71.32
2023-04-25T13:03:18.873Z,71.03
2023-04-25T13:05:47.125Z,70.22
2023-04-25T13:08:14.945Z,70.18
2023-04-25T13:10:42.944Z,69.59
2023-04-25T13:13:10.984Z,69.45
2023-04-25T13:15:39.119Z,69.09
2023-04-25T13:18:09.967Z,68.91
2023-04-25T13:20:37.915Z,67.14
2023-04-25T13:23:05.880Z,65.49
2023-04-25T13:25:33.901Z,65.03
2023-04-25T13:28:01.962Z,63.71
2023-04-25T13:30:29.953Z,63.41
2023-04-25T13:33:05.340Z,62.53
2023-04-25T13:35:33.312Z,62.55
2023-04-25T13:38:01.433Z,60.91
2023-04-25T13:40:29.849Z,60.18
2023-04-25T13:42:58.241Z,59.81
2023-04-25T13:45:26.256Z,60.07
2023-04-25T13:47:54.241Z,58.41
2023-04-25T13:50:22.659Z,58.17
2023-04-25T13:52:50.826Z,58.75
2023-04-25T13:55:18.928Z,57.81
2023-04-25T13:57:46.861Z,56.11
2023-04-25T14:00:15.390Z,57.19
2023-04-25T14:02:43.449Z,58.13
2023-04-25T14:05:11.692Z,58.13
2023-04-25T14:07:39.777Z,58.43
2023-04-25T14:10:09.190Z,59.24
2023-04-25T14:12:37.318Z,59.92
2023-04-25T14:15:05.887Z,60.27
2023-04-25T14:17:33.973Z,60.33
2023-04-25T14:20:01.982Z,60.13
2023-04-25T14:22:29.898Z,59.20
2023-04-25T14:24:57.801Z,59.84
2023-04-25T14:27:28.542Z,58.54
2023-04-25T14:29:57.093Z,58.73
2023-04-25T14:32:24.993Z,59.55
2023-04-25T14:34:53.215Z,59.25
2023-04-25T14:37:21.178Z,60.26
2023-04-25T14:39:49.019Z,61.48
2023-04-25T14:42:16.928Z,62.61
2023-04-25T14:44:44.769Z,63.78
2023-04-25T14:47:12.734Z,62.06
2023-04-25T14:49:40.757Z,62.00
2023-04-25T14:52:08.727Z,62.80
2023-04-25T14:54:36.698Z,62.01
2023-04-25T14:57:04.669Z,61.19
2023-04-25T14:59:32.553Z,61.33
2023-04-25T15:02:00.483Z,61.33
2023-04-25T15:04:28.891Z,61.36
2023-04-25T15:06:57.251Z,60.78
2023-04-25T15:09:26.444Z,60.49
2023-04-25T15:11:54.387Z,61.23
2023-04-25T15:14:22.426Z,61.32
2023-04-25T15:16:50.310Z,60.58
2023-04-25T15:19:18.412Z,60.52
2023-04-25T15:21:46.391Z,60.70
2023-04-25T15:24:16.468Z,61.61
2023-04-25T15:26:44.432Z,62.78
2023-04-25T15:29:12.897Z,62.28
2023-04-25T15:31:40.805Z,61.40
2023-04-25T15:34:08.757Z,60.97
2023-04-25T15:36:36.751Z,61.46
2023-04-25T15:39:04.828Z,60.84
2023-04-25T15:41:32.718Z,61.21
2023-04-25T15:44:01.911Z,58.24
2023-04-25T15:46:32.437Z,59.26
2023-04-25T15:49:00.437Z,59.91
2023-04-25T15:51:29.466Z,59.32
2023-04-25T15:53:57.790Z,59.46
2023-04-25T15:56:25.719Z,58.61
2023-04-25T15:58:53.961Z,59.48
2023-04-25T16:01:25.572Z,59.73
2023-04-25T16:03:54.318Z,60.00
2023-04-25T16:06:22.453Z,60.20
2023-04-25T16:08:50.447Z,60.47
2023-04-25T16:11:18.371Z,60.71
2023-04-25T16:13:46.500Z,59.75
2023-04-25T16:16:16.584Z,60.22
2023-04-25T16:18:44.465Z,60.37
2023-04-25T16:21:17.344Z,60.36
2023-04-25T16:23:45.338Z,60.44
2023-04-25T16:26:13.357Z,60.68
2023-04-25T16:28:41.204Z,61.06
2023-04-25T16:31:09.404Z,60.95
2023-04-25T16:33:37.464Z,61.41
2023-04-25T16:36:05.586Z,61.48
2023-04-25T16:38:33.425Z,62.21
2023-04-25T16:41:01.327Z,62.93
2023-04-25T16:43:29.339Z,64.52
2023-04-25T16:45:57.438Z,65.79
2023-04-25T16:48:25.901Z,65.86
2023-04-25T16:50:55.618Z,66.04
2023-04-25T16:53:24.494Z,66.75
2023-04-25T16:55:52.561Z,67.84
2023-04-25T16:58:21.106Z,67.88
2023-04-25T17:00:49.250Z,68.09
2023-04-25T17:03:17.458Z,68.47
2023-04-25T17:05:45.754Z,68.47
2023-04-25T17:08:13.849Z,68.51
2023-04-25T17:10:41.865Z,68.42
2023-04-25T17:13:09.939Z,68.43
2023-04-25T17:15:37.834Z,68.81
2023-04-25T17:18:05.974Z,68.64
2023-04-25T17:20:34.056Z,68.89
2023-04-25T17:23:02.688Z,69.22
2023-04-25T17:25:32.146Z,69.71
2023-04-25T17:28:00.154Z,69.80
2023-04-25T17:30:28.863Z,70.52
2023-04-25T17:32:57.011Z,70.67
2023-04-25T17:35:25.092Z,70.67
2023-04-25T17:37:53.849Z,70.83
2023-04-25T17:40:22.229Z,70.90
2023-04-25T17:42:50.065Z,70.65
2023-04-25T17:45:18.837Z,70.90
2023-04-25T17:47:47.039Z,70.61
2023-04-25T17:50:17.971Z,70.45
2023-04-25T17:52:46.773Z,70.50
2023-04-25T17:55:14.753Z,70.59
2023-04-25T17:57:43.144Z,70.70
2023-04-25T18:00:13.721Z,70.61
2023-04-25T18:02:41.941Z,70.68
2023-04-25T18:05:12.875Z,70.62
2023-04-25T18:07:40.834Z,70.60
2023-04-25T18:10:10.224Z,70.56
2023-04-25T18:12:38.433Z,70.42
2023-04-25T18:15:08.234Z,70.34
2023-04-25T18:17:41.924Z,70.30
2023-04-25T18:20:17.045Z,70.29
2023-04-25T18:22:46.441Z,70.21
2023-04-25T18:25:15.132Z,70.12
2023-04-25T18:27:43.844Z,70.08
2023-04-25T18:30:15.132Z,69.87
2023-04-25T18:32:43.611Z,70.04
2023-04-25T18:35:11.702Z,70.14
2023-04-25T18:37:42.036Z,70.33
2023-04-25T18:40:14.288Z,70.48
2023-04-25T18:42:42.500Z,70.74
2023-04-25T18:45:10.966Z,70.96
2023-04-25T18:47:38.952Z,70.94
2023-04-25T18:50:08.139Z,71.01
2023-04-25T18:52:36.280Z,71.66
2023-04-25T18:55:04.488Z,71.50
2023-04-25T18:57:32.455Z,72.14
2023-04-25T19:00:00.544Z,73.07
2023-04-25T19:02:28.615Z,74.52
2023-04-25T19:04:56.536Z,74.46
2023-04-25T19:07:24.753Z,74.46
2023-04-25T19:09:52.796Z,75.25
2023-04-25T19:12:20.720Z,75.32
2023-04-25T19:14:48.708Z,75.13
2023-04-25T19:17:16.632Z,75.21
2023-04-25T19:19:44.568Z,75.20
2023-04-25T19:22:12.931Z,75.20
2023-04-25T19:24:41.140Z,76.06
2023-04-25T19:27:09.065Z,75.61
2023-04-25T19:29:37.484Z,75.78
2023-04-25T19:32:06.532Z,76.15
2023-04-25T19:34:34.497Z,76.10
2023-04-25T19:37:02.658Z,76.53
2023-04-25T19:39:30.626Z,76.77
2023-04-25T19:41:58.777Z,77.15
2023-04-25T19:44:27.113Z,79.02
2023-04-25T19:46:55.046Z,78.37
2023-04-25T19:49:23.513Z,78.18
2023-04-25T19:51:51.399Z,78.30
2023-04-25T19:54:20.242Z,77.97
2023-04-25T19:56:49.032Z,78.00
2023-04-25T19:59:17.595Z,77.99
2023-04-25T20:01:45.894Z,78.26
2023-04-25T20:04:14.149Z,78.41
2023-04-25T20:06:42.126Z,78.57
2023-04-25T20:09:10.827Z,78.65
2023-04-25T20:11:38.905Z,79.20
2023-04-25T20:14:07.069Z,79.34
2023-04-25T20:16:35.142Z,79.93
2023-04-25T20:19:03.010Z,79.89
2023-04-25T20:21:31.043Z,80.10
2023-04-25T20:23:59.634Z,80.35
2023-04-25T20:26:27.708Z,80.24
2023-04-25T20:28:55.788Z,80.27
2023-04-25T20:31:24.090Z,80.80
2023-04-25T20:33:52.067Z,81.16
2023-04-25T20:36:21.138Z,81.27
2023-04-25T20:38:49.374Z,81.32
2023-04-25T20:41:17.493Z,81.33
2023-04-25T20:43:45.494Z,82.89
2023-04-25T20:46:13.864Z,82.09
2023-04-25T20:48:41.965Z,82.48
2023-04-25T20:51:10.192Z,82.52
2023-04-25T20:53:38.016Z,81.98
2023-04-25T20:56:07.625Z,81.84
2023-04-25T20:58:35.614Z,81.83
2023-04-25T21:01:05.538Z,81.62
2023-04-25T21:03:35.118Z,81.46
2023-04-25T21:06:03.337Z,81.54
2023-04-25T21:08:31.270Z,81.51
2023-04-25T21:10:59.089Z,81.45
2023-04-25T21:13:28.618Z,81.46
2023-04-25T21:15:56.765Z,81.30
2023-04-25T21:18:24.742Z,81.42
2023-04-25T21:20:52.792Z,81.43
2023-04-25T21:23:21.268Z,81.32
2023-04-25T21:25:50.162Z,81.40
2023-04-25T21:28:18.191Z,81.44
2023-04-25T21:30:46.646Z,81.76
2023-04-25T21:33:15.220Z,81.83
2023-04-25T21:35:43.422Z,81.99
2023-04-25T21:38:11.383Z,81.82
2023-04-25T21:40:39.565Z,81.71
2023-04-25T21:43:07.620Z,82.19
2023-04-25T21:45:51.420Z,81.97
2023-04-25T21:48:24.343Z,82.90
2023-04-25T21:50:52.218Z,82.44
2023-04-25T21:53:20.157Z,82.90
2023-04-25T21:55:48.169Z,83.32
2023-04-25T21:58:16.253Z,83.48
2023-04-25T22:00:45.776Z,83.35
2023-04-25T22:03:16.186Z,84.03
2023-04-25T22:05:45.600Z,84.26
2023-04-25T22:08:13.939Z,84.02
2023-04-25T22:10:41.929Z,83.96
2023-04-25T22:13:09.950Z,84.89
2023-04-25T22:15:37.879Z,84.64
2023-04-25T22:18:06.913Z,84.58
2023-04-25T22:20:35.924Z,84.54
2023-04-25T22:23:04.541Z,86.30
2023-04-25T22:25:33.097Z,85.83
2023-04-25T22:28:01.031Z,85.30
2023-04-25T22:30:31.270Z,85.38
2023-04-25T22:32:59.424Z,85.25
2023-04-25T22:35:27.492Z,85.15
2023-04-25T22:37:55.742Z,85.25
2023-04-25T22:40:23.568Z,85.56
2023-04-25T22:42:51.649Z,85.25
2023-04-25T22:45:19.651Z,85.65
2023-04-25T22:47:47.717Z,85.23
2023-04-25T22:50:17.765Z,84.98
2023-04-25T22:52:45.678Z,84.85
2023-04-25T22:55:14.553Z,85.07
2023-04-25T22:57:42.755Z,84.66
2023-04-25T23:00:17.285Z,84.77
2023-04-25T23:02:47.061Z,84.83
2023-04-25T23:05:16.446Z,84.73
2023-04-25T23:07:47.678Z,84.65
2023-04-25T23:10:15.669Z,84.41
2023-04-25T23:12:43.590Z,84.65
2023-04-25T23:15:12.251Z,84.62
2023-04-25T23:17:40.656Z,84.27
2023-04-25T23:20:11.575Z,84.33
2023-04-25T23:22:40.288Z,84.25
2023-04-25T23:25:09.104Z,84.32
2023-04-25T23:27:37.188Z,84.08
2023-04-25T23:30:05.656Z,83.98
2023-04-25T23:32:33.858Z,83.83
2023-04-25T23:35:02.426Z,83.84
2023-04-25T23:37:31.752Z,83.94
2023-04-25T23:39:59.700Z,84.23
2023-04-25T23:42:27.798Z,84.19
2023-04-25T23:44:55.661Z,84.03
2023-04-25T23:47:23.610Z,84.11
2023-04-25T23:49:51.574Z,84.04
2023-04-25T23:52:19.471Z,83.84
2023-04-25T23:54:47.490Z,83.82
2023-04-25T23:57:15.386Z,83.90
2023-04-25T23:59:43.377Z,84.12
